createdAt,value
2022-11-20T00:00:17.383Z,15.30
2022-11-20T00:02:45.873Z,15.35
2022-11-20T00:05:12.342Z,13.38
2022-11-20T00:07:38.789Z,13.70
2022-11-20T00:10:43.897Z,11.80
2022-11-20T00:13:17.307Z,13.60
2022-11-20T00:15:43.796Z,12.90
2022-11-20T00:18:10.247Z,12.60
2022-11-20T00:20:54.679Z,12.03
2022-11-20T00:23:21.274Z,12.40
2022-11-20T00:26:09.115Z,12.10
2022-11-20T00:28:38.149Z,11.40
2022-11-20T00:31:10.578Z,10.52
2022-11-20T00:33:40.463Z,9.23
2022-11-20T00:36:16.513Z,9.38
2022-11-20T00:38:46.416Z,10.07
2022-11-20T00:41:16.520Z,9.93
2022-11-20T00:43:48.055Z,9.23
2022-11-20T00:46:25.157Z,9.10
2022-11-20T00:48:58.449Z,9.07
2022-11-20T00:51:27.936Z,9.60
2022-11-20T00:53:57.410Z,9.20
2022-11-20T00:56:32.924Z,9.38
2022-11-20T00:59:04.589Z,9.50
2022-11-20T01:01:48.124Z,8.35
2022-11-20T01:04:14.500Z,10.02
2022-11-20T01:06:41.186Z,8.68
2022-11-20T01:09:12.049Z,8.50
2022-11-20T01:11:41.855Z,8.83
2022-11-20T01:14:12.152Z,9.88
2022-11-20T01:17:03.490Z,10.52
2022-11-20T01:19:51.771Z,9.18
2022-11-20T01:22:20.238Z,9.10
2022-11-20T01:24:54.587Z,9.17
2022-11-20T01:27:33.233Z,8.48
2022-11-20T01:30:06.079Z,9.55
2022-11-20T01:32:56.133Z,8.23
2022-11-20T01:35:24.624Z,8.88
2022-11-20T01:37:53.110Z,9.40
2022-11-20T01:40:35.867Z,9.85
2022-11-20T01:43:23.887Z,9.43
2022-11-20T01:46:19.291Z,9.77
2022-11-20T01:49:01.352Z,8.73
2022-11-20T01:51:51.837Z,8.47
2022-11-20T01:54:25.605Z,8.93
2022-11-20T01:57:06.184Z,8.60
2022-11-20T01:59:48.853Z,8.70
2022-11-20T02:02:20.151Z,9.07
2022-11-20T02:04:48.135Z,8.43
2022-11-20T02:07:19.809Z,8.40
2022-11-20T02:09:57.365Z,9.15
2022-11-20T02:12:43.447Z,7.43
2022-11-20T02:15:16.158Z,7.93
2022-11-20T02:17:42.657Z,8.57
2022-11-20T02:20:09.733Z,7.38
2022-11-20T02:22:49.885Z,8.10
2022-11-20T02:25:16.647Z,7.55
2022-11-20T02:27:51.655Z,7.90
2022-11-20T02:30:18.639Z,7.57
2022-11-20T02:32:49.186Z,8.80
2022-11-20T02:35:18.767Z,8.25
2022-11-20T02:37:48.625Z,7.35
2022-11-20T02:40:18.282Z,8.15
2022-11-20T02:42:44.671Z,6.83
2022-11-20T02:45:11.799Z,6.57
2022-11-20T02:47:42.232Z,7.95
2022-11-20T02:50:09.019Z,7.57
2022-11-20T02:52:36.559Z,7.30
2022-11-20T02:55:03.618Z,7.13
2022-11-20T02:57:32.145Z,7.35
2022-11-20T03:00:07.754Z,7.55
2022-11-20T03:02:37.514Z,7.57
2022-11-20T03:05:08.171Z,7.72
2022-11-20T03:07:34.865Z,7.20
2022-11-20T03:10:06.971Z,8.13
2022-11-20T03:12:38.652Z,7.97
2022-11-20T03:15:05.544Z,7.30
2022-11-20T03:17:33.044Z,8.27
2022-11-20T03:19:59.494Z,7.77
2022-11-20T03:22:32.892Z,7.13
2022-11-20T03:24:59.366Z,7.90
2022-11-20T03:27:25.782Z,7.45
2022-11-20T03:29:52.172Z,7.25
2022-11-20T03:32:18.550Z,7.20
2022-11-20T03:34:44.939Z,7.70
2022-11-20T03:37:11.313Z,7.50
2022-11-20T03:39:37.656Z,6.95
2022-11-20T03:42:24.116Z,6.80
2022-11-20T03:44:50.479Z,5.67
2022-11-20T03:47:16.876Z,7.68
2022-11-20T03:49:43.247Z,7.82
2022-11-20T03:52:09.595Z,6.07
2022-11-20T03:54:35.956Z,6.18
2022-11-20T03:57:02.328Z,6.63
2022-11-20T03:59:28.666Z,6.82
2022-11-20T04:01:55.046Z,7.05
2022-11-20T04:04:21.468Z,5.78
2022-11-20T04:06:47.835Z,6.60
2022-11-20T04:09:14.260Z,6.33
2022-11-20T04:11:41.729Z,6.72
2022-11-20T04:14:14.628Z,6.88
2022-11-20T04:16:41.602Z,6.18
2022-11-20T04:19:12.383Z,6.43
2022-11-20T04:21:38.994Z,6.77
2022-11-20T04:24:14.090Z,5.90
2022-11-20T04:26:41.587Z,6.22
2022-11-20T04:29:12.159Z,7.10
2022-11-20T04:31:38.766Z,6.85
2022-11-20T04:34:07.486Z,6.53
2022-11-20T04:36:34.619Z,6.07
2022-11-20T04:39:04.005Z,6.45
2022-11-20T04:41:34.443Z,6.32
2022-11-20T04:44:04.255Z,6.20
2022-11-20T04:46:40.338Z,6.60
2022-11-20T04:49:07.940Z,6.10
2022-11-20T04:51:34.858Z,5.80
2022-11-20T04:54:01.696Z,6.57
2022-11-20T04:56:28.219Z,6.15
2022-11-20T04:58:54.654Z,6.90
2022-11-20T05:01:24.971Z,5.93
2022-11-20T05:03:51.848Z,6.57
2022-11-20T05:06:20.512Z,6.13
2022-11-20T05:08:46.869Z,6.82
2022-11-20T05:11:16.042Z,6.20
2022-11-20T05:13:43.132Z,6.05
2022-11-20T05:16:13.111Z,6.55
2022-11-20T05:18:40.402Z,6.53
2022-11-20T05:21:10.760Z,6.43
2022-11-20T05:23:37.823Z,6.20
2022-11-20T05:26:16.010Z,7.45
2022-11-20T05:28:42.479Z,7.03
2022-11-20T05:31:11.798Z,7.38
2022-11-20T05:33:43.091Z,6.75
2022-11-20T05:36:10.621Z,6.50
2022-11-20T05:38:36.999Z,6.53
2022-11-20T05:41:08.567Z,7.82
2022-11-20T05:43:41.701Z,5.68
2022-11-20T05:46:09.625Z,6.63
2022-11-20T05:48:37.941Z,6.23
2022-11-20T05:51:06.624Z,6.35
2022-11-20T05:53:36.339Z,6.68
2022-11-20T05:56:06.555Z,6.35
2022-11-20T05:58:34.107Z,6.25
2022-11-20T06:01:16.140Z,5.80
2022-11-20T06:03:44.589Z,6.47
2022-11-20T06:06:10.937Z,6.05
2022-11-20T06:08:37.378Z,6.78
2022-11-20T06:11:08.799Z,6.25
2022-11-20T06:13:40.591Z,5.73
2022-11-20T06:16:08.814Z,6.28
2022-11-20T06:18:40.017Z,6.30
2022-11-20T06:21:09.198Z,6.43
2022-11-20T06:23:36.415Z,5.85
2022-11-20T06:26:12.213Z,6.33
2022-11-20T06:28:39.224Z,5.97
2022-11-20T06:31:06.299Z,6.25
2022-11-20T06:33:33.255Z,5.75
2022-11-20T06:36:08.901Z,5.88
2022-11-20T06:38:37.739Z,6.33
2022-11-20T06:41:05.585Z,6.35
2022-11-20T06:43:32.155Z,6.03
2022-11-20T06:45:59.938Z,5.40
2022-11-20T06:48:28.728Z,6.25
2022-11-20T06:50:55.229Z,5.97
2022-11-20T06:53:23.209Z,6.22
2022-11-20T06:55:50.749Z,6.47
2022-11-20T06:58:17.758Z,6.43
2022-11-20T07:00:45.257Z,6.65
2022-11-20T07:03:12.671Z,6.60
2022-11-20T07:05:39.475Z,6.32
2022-11-20T07:08:06.082Z,7.15
2022-11-20T07:10:33.091Z,5.70
2022-11-20T07:12:59.434Z,5.95
2022-11-20T07:15:26.427Z,6.17
2022-11-20T07:17:53.305Z,5.88
2022-11-20T07:20:19.663Z,6.40
2022-11-20T07:22:46.022Z,5.65
2022-11-20T07:25:12.388Z,5.63
2022-11-20T07:27:38.733Z,5.73
2022-11-20T07:30:05.631Z,6.13
2022-11-20T07:32:32.077Z,6.65
2022-11-20T07:34:58.441Z,6.03
2022-11-20T07:37:24.828Z,6.13
2022-11-20T07:39:53.239Z,6.37
2022-11-20T07:42:21.612Z,6.13
2022-11-20T07:44:47.983Z,7.03
2022-11-20T07:47:14.370Z,7.13
2022-11-20T07:49:45.774Z,7.45
2022-11-20T07:52:20.390Z,7.53
2022-11-20T07:54:46.739Z,7.45
2022-11-20T07:57:13.062Z,7.32
2022-11-20T07:59:39.878Z,6.85
2022-11-20T08:02:06.365Z,6.82
2022-11-20T08:04:39.599Z,7.27
2022-11-20T08:07:06.040Z,6.82
2022-11-20T08:09:33.515Z,7.65
2022-11-20T08:12:18.669Z,6.88
2022-11-20T08:14:45.010Z,7.07
2022-11-20T08:17:13.422Z,7.47
2022-11-20T08:19:39.910Z,7.30
2022-11-20T08:22:06.278Z,7.43
2022-11-20T08:24:33.673Z,7.03
2022-11-20T08:27:00.462Z,7.18
2022-11-20T08:29:36.747Z,6.60
2022-11-20T08:32:03.178Z,8.02
2022-11-20T08:34:42.776Z,6.88
2022-11-20T08:37:15.337Z,6.63
2022-11-20T08:39:41.895Z,7.38
2022-11-20T08:42:31.300Z,7.73
2022-11-20T08:45:05.658Z,7.65
2022-11-20T08:47:32.118Z,7.70
2022-11-20T08:49:59.491Z,7.78
2022-11-20T08:52:36.988Z,8.00
2022-11-20T08:55:16.976Z,9.93
2022-11-20T08:57:54.544Z,10.30
2022-11-20T09:00:29.115Z,12.25
2022-11-20T09:03:04.760Z,11.40
2022-11-20T09:05:31.098Z,10.15
2022-11-20T09:08:04.886Z,8.00
2022-11-20T09:10:31.527Z,8.90
2022-11-20T09:12:57.978Z,9.20
2022-11-20T09:15:38.595Z,8.98
2022-11-20T09:18:05.904Z,8.52
2022-11-20T09:20:36.651Z,7.93
2022-11-20T09:23:03.719Z,7.80
2022-11-20T09:25:31.264Z,9.02
2022-11-20T09:27:59.286Z,9.27
2022-11-20T09:30:36.556Z,8.70
2022-11-20T09:33:05.271Z,9.20
2022-11-20T09:35:31.651Z,8.65
2022-11-20T09:38:08.052Z,9.32
2022-11-20T09:40:41.777Z,8.73
2022-11-20T09:43:42.625Z,9.02
2022-11-20T09:46:22.104Z,8.43
2022-11-20T09:49:07.351Z,8.23
2022-11-20T09:51:57.818Z,8.88
2022-11-20T09:54:31.441Z,7.85
2022-11-20T09:57:03.757Z,8.52
2022-11-20T09:59:36.999Z,8.30
2022-11-20T10:02:18.363Z,7.90
2022-11-20T10:05:10.199Z,8.65
2022-11-20T10:08:09.939Z,8.38
2022-11-20T10:10:47.358Z,8.75
2022-11-20T10:13:32.763Z,7.63
2022-11-20T10:16:43.941Z,10.60
2022-11-20T10:19:43.861Z,8.52
2022-11-20T10:22:46.744Z,8.65
2022-11-20T10:25:18.870Z,8.88
2022-11-20T10:28:03.774Z,9.43
2022-11-20T10:30:32.217Z,8.77
2022-11-20T10:33:11.590Z,9.98
2022-11-20T10:35:51.674Z,9.52
2022-11-20T10:38:24.568Z,10.23
2022-11-20T10:41:21.212Z,10.30
2022-11-20T10:43:56.048Z,10.35
2022-11-20T10:46:46.227Z,11.05
2022-11-20T10:49:19.391Z,9.98
2022-11-20T10:51:51.444Z,11.90
2022-11-20T10:55:12.368Z,10.90
2022-11-20T10:58:31.479Z,9.23
2022-11-20T11:01:24.334Z,10.38
2022-11-20T11:03:53.312Z,10.05
2022-11-20T11:06:43.662Z,11.13
2022-11-20T11:09:22.564Z,11.07
2022-11-20T11:11:52.618Z,10.13
2022-11-20T11:14:25.544Z,11.68
2022-11-20T11:16:59.276Z,10.63
2022-11-20T11:19:27.770Z,11.23
2022-11-20T11:21:58.112Z,10.30
2022-11-20T11:24:41.829Z,11.20
2022-11-20T11:27:17.350Z,10.77
2022-11-20T11:29:46.589Z,11.40
2022-11-20T11:32:16.201Z,10.18
2022-11-20T11:34:42.807Z,10.67
2022-11-20T11:37:33.368Z,11.85
2022-11-20T11:40:39.162Z,10.20
2022-11-20T11:43:28.253Z,10.30
2022-11-20T11:46:01.855Z,10.98
2022-11-20T11:49:23.310Z,11.87
2022-11-20T11:52:08.727Z,10.52
2022-11-20T11:54:56.606Z,12.25
2022-11-20T11:58:12.463Z,12.07
2022-11-20T12:00:46.495Z,11.48
2022-11-20T12:03:42.522Z,12.43
2022-11-20T12:06:17.499Z,11.90
2022-11-20T12:09:05.238Z,12.80
2022-11-20T12:11:38.652Z,12.88
2022-11-20T12:14:56.931Z,12.35
2022-11-20T12:17:37.768Z,11.30
2022-11-20T12:20:42.561Z,12.55
2022-11-20T12:23:23.947Z,12.05
2022-11-20T12:26:23.927Z,11.27
2022-11-20T12:29:39.806Z,11.70
2022-11-20T12:32:29.737Z,11.60
2022-11-20T12:35:11.629Z,11.00
2022-11-20T12:38:00.422Z,12.13
2022-11-20T12:40:36.735Z,12.57
2022-11-20T12:43:45.523Z,11.27
2022-11-20T12:46:44.680Z,12.30
2022-11-20T12:49:20.229Z,12.80
2022-11-20T12:52:10.737Z,12.63
2022-11-20T12:54:40.031Z,11.90
2022-11-20T12:57:39.395Z,12.38
2022-11-20T13:00:21.554Z,11.27
2022-11-20T13:03:06.110Z,11.00
2022-11-20T13:05:33.645Z,11.88
2022-11-20T13:08:02.112Z,11.95
2022-11-20T13:10:43.691Z,11.68
2022-11-20T13:14:04.083Z,12.17
2022-11-20T13:16:42.523Z,11.23
2022-11-20T13:19:18.035Z,12.07
2022-11-20T13:21:51.662Z,12.93
2022-11-20T13:24:32.314Z,11.95
2022-11-20T13:27:22.235Z,11.60
2022-11-20T13:30:26.243Z,11.13
2022-11-20T13:33:08.606Z,12.10
2022-11-20T13:35:42.788Z,11.27
2022-11-20T13:38:11.755Z,12.23
2022-11-20T13:40:51.372Z,11.57
2022-11-20T13:43:37.980Z,12.20
2022-11-20T13:46:09.883Z,11.60
2022-11-20T13:48:42.373Z,10.85
2022-11-20T13:51:51.594Z,12.02
2022-11-20T13:54:52.827Z,12.03
2022-11-20T13:57:35.666Z,11.07
2022-11-20T14:00:26.534Z,12.38
2022-11-20T14:03:13.165Z,13.27
2022-11-20T14:06:03.711Z,13.60
2022-11-20T14:09:02.287Z,15.07
2022-11-20T14:11:35.538Z,13.55
2022-11-20T14:14:48.780Z,14.00
2022-11-20T14:17:43.891Z,12.23
2022-11-20T14:20:16.175Z,11.48
2022-11-20T14:22:50.307Z,12.00
2022-11-20T14:25:28.284Z,12.35
2022-11-20T14:27:58.136Z,12.15
2022-11-20T14:30:27.136Z,12.23
2022-11-20T14:33:04.183Z,12.77
2022-11-20T14:35:37.842Z,11.37
2022-11-20T14:38:05.167Z,11.80
2022-11-20T14:40:48.872Z,12.85
2022-11-20T14:43:56.048Z,14.50
2022-11-20T14:46:23.035Z,13.95
2022-11-20T14:49:23.586Z,12.57
2022-11-20T14:52:00.549Z,12.15
2022-11-20T14:54:31.606Z,12.13
2022-11-20T14:57:04.766Z,12.65
2022-11-20T14:59:34.445Z,11.82
2022-11-20T15:02:12.877Z,12.67
2022-11-20T15:04:57.560Z,11.38
2022-11-20T15:07:30.739Z,13.00
2022-11-20T15:10:25.976Z,10.90
2022-11-20T15:13:00.906Z,11.50
2022-11-20T15:15:55.920Z,12.40
2022-11-20T15:18:33.148Z,12.20
2022-11-20T15:21:21.839Z,13.13
2022-11-20T15:23:54.609Z,11.90
2022-11-20T15:26:26.965Z,12.43
2022-11-20T15:28:53.823Z,12.50
2022-11-20T15:31:24.688Z,12.00
2022-11-20T15:33:51.470Z,12.98
2022-11-20T15:36:18.057Z,12.85
2022-11-20T15:38:44.480Z,13.02
2022-11-20T15:41:11.523Z,13.33
2022-11-20T15:43:38.428Z,13.68
2022-11-20T15:46:10.172Z,13.27
2022-11-20T15:48:44.754Z,13.70
2022-11-20T15:51:30.432Z,13.07
2022-11-20T15:53:57.715Z,13.33
2022-11-20T15:56:24.766Z,13.18
2022-11-20T15:58:51.146Z,14.10
2022-11-20T16:01:22.961Z,12.68
2022-11-20T16:03:49.646Z,13.63
2022-11-20T16:06:18.194Z,12.67
2022-11-20T16:08:44.777Z,12.95
2022-11-20T16:11:16.730Z,12.95
2022-11-20T16:14:02.431Z,13.00
2022-11-20T16:16:34.240Z,12.55
2022-11-20T16:19:01.247Z,14.67
2022-11-20T16:21:32.226Z,14.15
2022-11-20T16:24:00.713Z,14.70
2022-11-20T16:26:36.133Z,15.80
2022-11-20T16:29:04.750Z,13.10
2022-11-20T16:31:44.139Z,12.80
2022-11-20T16:34:12.664Z,13.32
2022-11-20T16:36:45.858Z,14.57
2022-11-20T16:39:13.486Z,13.40
2022-11-20T16:41:40.029Z,12.98
2022-11-20T16:44:11.722Z,12.27
2022-11-20T16:46:40.922Z,11.75
2022-11-20T16:49:12.608Z,13.23
2022-11-20T16:51:49.267Z,13.00
2022-11-20T16:54:20.496Z,13.85
2022-11-20T16:56:48.291Z,12.10
2022-11-20T16:59:14.655Z,12.00
2022-11-20T17:01:43.095Z,12.05
2022-11-20T17:04:10.041Z,12.70
2022-11-20T17:06:46.859Z,12.98
2022-11-20T17:09:13.818Z,12.60
2022-11-20T17:11:40.326Z,12.68
2022-11-20T17:14:11.422Z,13.05
2022-11-20T17:16:38.381Z,13.65
2022-11-20T17:19:06.240Z,12.73
2022-11-20T17:21:38.073Z,12.83
2022-11-20T17:24:09.149Z,12.95
2022-11-20T17:26:38.399Z,12.65
2022-11-20T17:29:05.979Z,13.93
2022-11-20T17:31:34.335Z,13.35
2022-11-20T17:34:01.692Z,12.03
2022-11-20T17:36:29.502Z,13.23
2022-11-20T17:38:56.199Z,12.10
2022-11-20T17:41:25.339Z,12.13
2022-11-20T17:43:57.253Z,11.98
2022-11-20T17:46:25.722Z,11.93
2022-11-20T17:48:52.375Z,13.13
2022-11-20T17:51:35.062Z,14.07
2022-11-20T17:54:04.344Z,12.57
2022-11-20T17:56:52.643Z,13.98
2022-11-20T17:59:19.668Z,12.63
2022-11-20T18:01:46.155Z,12.88
2022-11-20T18:04:22.178Z,12.95
2022-11-20T18:06:57.030Z,12.02
2022-11-20T18:09:28.687Z,12.40
2022-11-20T18:11:55.123Z,11.73
2022-11-20T18:14:36.079Z,13.40
2022-11-20T18:17:04.572Z,13.82
2022-11-20T18:20:14.130Z,11.95
2022-11-20T18:22:48.312Z,10.98
2022-11-20T18:25:44.503Z,12.33
2022-11-20T18:28:10.913Z,11.75
2022-11-20T18:30:37.255Z,12.73
2022-11-20T18:33:05.003Z,12.05
2022-11-20T18:35:45.406Z,12.27
2022-11-20T18:38:13.947Z,13.17
2022-11-20T18:40:40.291Z,13.93
2022-11-20T18:43:24.976Z,12.57
2022-11-20T18:45:52.494Z,12.50
2022-11-20T18:48:18.860Z,12.43
2022-11-20T18:50:46.296Z,11.00
2022-11-20T18:53:12.684Z,11.15
2022-11-20T18:55:56.048Z,11.82
2022-11-20T18:58:23.466Z,12.73
2022-11-20T19:00:49.821Z,11.82
2022-11-20T19:03:27.172Z,12.87
2022-11-20T19:05:53.518Z,12.73
2022-11-20T19:08:27.974Z,12.60
2022-11-20T19:11:14.004Z,12.50
2022-11-20T19:13:45.192Z,13.40
2022-11-20T19:16:22.479Z,12.03
2022-11-20T19:18:49.367Z,11.80
2022-11-20T19:21:23.306Z,12.27
2022-11-20T19:24:00.184Z,12.25
2022-11-20T19:26:36.182Z,14.30
2022-11-20T19:29:06.790Z,14.60
2022-11-20T19:31:33.474Z,14.23
2022-11-20T19:34:09.807Z,14.95
2022-11-20T19:36:44.778Z,14.18
2022-11-20T19:39:12.111Z,14.90
2022-11-20T19:41:45.542Z,15.43
2022-11-20T19:44:15.807Z,13.73
2022-11-20T19:46:42.223Z,12.75
2022-11-20T19:49:11.340Z,13.68
2022-11-20T19:51:43.464Z,13.70
2022-11-20T19:54:09.939Z,13.30
2022-11-20T19:56:36.439Z,12.07
2022-11-20T19:59:04.966Z,12.63
2022-11-20T20:01:32.249Z,11.60
2022-11-20T20:04:05.046Z,11.70
2022-11-20T20:06:33.784Z,11.93
2022-11-20T20:09:09.579Z,11.57
2022-11-20T20:11:49.053Z,12.75
2022-11-20T20:14:32.763Z,10.90
2022-11-20T20:17:13.432Z,12.05
2022-11-20T20:19:43.990Z,12.47
2022-11-20T20:22:13.564Z,12.77
2022-11-20T20:24:47.213Z,16.58
2022-11-20T20:27:25.893Z,13.75
2022-11-20T20:30:05.942Z,15.25
2022-11-20T20:32:33.437Z,17.17
2022-11-20T20:35:00.121Z,14.20
2022-11-20T20:37:34.802Z,16.48
2022-11-20T20:44:35.671Z,12.45
2022-11-20T20:47:36.126Z,15.03
2022-11-20T20:50:30.497Z,14.15
2022-11-20T20:53:30.338Z,13.63
2022-11-20T20:57:03.403Z,14.32
2022-11-20T20:59:29.852Z,12.52
2022-11-20T21:01:57.335Z,13.27
2022-11-20T21:04:24.140Z,13.38
2022-11-20T21:07:12.513Z,14.23
2022-11-20T21:09:57.351Z,14.10
2022-11-20T21:12:50.695Z,13.40
2022-11-20T21:15:17.248Z,12.37
2022-11-20T21:18:11.630Z,13.63
2022-11-20T21:21:04.890Z,14.07
2022-11-20T21:24:14.063Z,14.48
2022-11-20T21:26:44.739Z,14.40
2022-11-20T21:29:34.051Z,13.60
2022-11-20T21:32:16.916Z,13.63
2022-11-20T21:34:44.395Z,14.27
2022-11-20T21:37:10.907Z,13.13
2022-11-20T21:39:50.676Z,13.32
2022-11-20T21:42:18.308Z,13.40
2022-11-20T21:45:08.952Z,15.00
2022-11-20T21:47:35.366Z,13.68
2022-11-20T21:50:03.654Z,14.02
2022-11-20T21:52:30.159Z,13.45
2022-11-20T21:55:01.763Z,13.60
2022-11-20T21:57:29.284Z,12.85
2022-11-20T22:00:13.580Z,15.10
2022-11-20T22:02:41.009Z,14.18
2022-11-20T22:05:20.857Z,14.68
2022-11-20T22:07:47.317Z,14.73
2022-11-20T22:10:19.848Z,14.32
2022-11-20T22:13:17.623Z,15.00
2022-11-20T22:16:00.601Z,14.73
2022-11-20T22:18:33.656Z,14.52
2022-11-20T22:21:09.503Z,14.70
2022-11-20T22:23:49.850Z,13.65
2022-11-20T22:26:18.800Z,14.90
2022-11-20T22:29:21.480Z,13.80
2022-11-20T22:31:48.110Z,15.80
2022-11-20T22:34:20.943Z,14.67
2022-11-20T22:36:47.652Z,17.38
2022-11-20T22:39:24.390Z,14.82
2022-11-20T22:42:08.108Z,14.45
2022-11-20T22:45:13.995Z,14.60
2022-11-20T22:48:13.678Z,13.93
2022-11-20T22:50:40.055Z,14.43
2022-11-20T22:53:20.813Z,16.17
2022-11-20T22:56:14.662Z,13.73
2022-11-20T22:58:43.289Z,14.00
2022-11-20T23:01:30.534Z,14.53
2022-11-20T23:04:10.861Z,14.65
2022-11-20T23:06:37.494Z,15.23
2022-11-20T23:09:30.570Z,14.73
2022-11-20T23:11:59.047Z,14.07
2022-11-20T23:14:36.759Z,13.83
2022-11-20T23:17:06.161Z,15.13
2022-11-20T23:19:34.554Z,13.55
2022-11-20T23:22:05.062Z,13.82
2022-11-20T23:24:31.444Z,14.40
2022-11-20T23:26:59.951Z,15.43
2022-11-20T23:29:26.503Z,15.00
2022-11-20T23:31:55.335Z,15.50
2022-11-20T23:34:59.937Z,13.70
2022-11-20T23:37:40.548Z,13.88
2022-11-20T23:40:18.268Z,13.73
2022-11-20T23:43:16.763Z,13.90
2022-11-20T23:45:49.374Z,14.80
2022-11-20T23:48:16.503Z,14.38
2022-11-20T23:50:44.436Z,14.18
2022-11-20T23:53:12.435Z,13.10
2022-11-20T23:55:38.864Z,13.85
2022-11-20T23:58:05.432Z,14.13
